Time;durP1;ratioP1;P1;durP2;ratioP2;P2;SDS_P1;SDS_P2;PMS_P1;PMS_P2;Temp;Humidity;BMP_temperature;BMP_pressure;BME280_temperature;BME280_humidity;BME280_pressure;Samples;Min_cycle;Max_cycle;Signal;HPM_P1;HPM_P2
2021/06/26 00:02:15;;;;;;;10.65;5.03;;;;;;;24.54;62.66;99520.55;1602022;88;21214;-72
2021/06/26 00:04:43;;;;;;;16.05;4.30;;;;;;;24.50;62.89;99530.64;1600775;88;20977;-74
2021/06/26 00:07:09;;;;;;;6.97;4.50;;;;;;;24.47;62.74;99523.06;1603246;88;21096;-72
2021/06/26 00:09:38;;;;;;;13.50;5.78;;;;;;;24.43;62.57;99513.91;1563747;90;20985;-71
2021/06/26 00:12:06;;;;;;;10.68;5.17;;;;;;;24.43;62.48;99505.66;1585924;90;22327;-72
2021/06/26 00:14:33;;;;;;;8.60;3.92;;;;;;;24.42;62.51;99514.48;1585882;89;21813;-80
2021/06/26 00:17:00;;;;;;;10.23;5.97;;;;;;;24.41;62.48;99511.52;1588968;89;21070;-76
2021/06/26 00:19:26;;;;;;;6.85;3.95;;;;;;;24.39;62.19;99502.81;1598815;89;20995;-80
2021/06/26 00:21:54;;;;;;;12.45;4.47;;;;;;;24.41;61.95;99500.53;1586061;90;21121;-71
2021/06/26 00:24:21;;;;;;;7.50;4.62;;;;;;;24.42;61.84;99515.05;1584599;89;21069;-72
2021/06/26 00:26:50;;;;;;;14.63;4.58;;;;;;;24.41;61.72;99504.66;1589887;89;21833;-73
2021/06/26 00:29:17;;;;;;;11.10;4.90;;;;;;;24.38;61.82;99516.89;1612784;89;21121;-69
2021/06/26 00:31:44;;;;;;;13.08;4.70;;;;;;;24.38;61.69;99515.52;1608622;89;21606;-71
2021/06/26 00:34:11;;;;;;;7.30;4.12;;;;;;;24.32;61.66;99510.25;1587397;90;21135;-70
2021/06/26 00:36:39;;;;;;;17.65;4.40;;;;;;;24.28;61.81;99514.04;1589060;89;21062;-72
2021/06/26 00:39:06;;;;;;;13.95;4.03;;;;;;;24.26;61.65;99519.09;1586707;90;21770;-73
2021/06/26 00:41:32;;;;;;;13.83;4.58;;;;;;;24.26;61.57;99514.41;1610621;89;21542;-70
2021/06/26 00:43:59;;;;;;;11.83;4.40;;;;;;;24.25;61.60;99507.87;1613169;89;21534;-70
2021/06/26 00:46:26;;;;;;;6.22;4.12;;;;;;;24.23;61.23;99500.53;1604341;89;21616;-70
2021/06/26 00:48:53;;;;;;;11.60;4.60;;;;;;;24.22;61.42;99502.47;1578612;89;21091;-70
2021/06/26 00:51:20;;;;;;;15.68;3.98;;;;;;;24.18;61.14;99498.02;1582815;89;21067;-69
2021/06/26 00:53:47;;;;;;;11.05;4.17;;;;;;;24.19;61.04;99492.18;1615964;89;21051;-70
2021/06/26 00:56:14;;;;;;;10.58;4.58;;;;;;;24.22;60.72;99494.83;1614711;88;21056;-71
2021/06/26 00:58:41;;;;;;;13.40;4.50;;;;;;;24.20;60.54;99487.48;1614032;88;21098;-71
2021/06/26 01:01:09;;;;;;;8.88;4.03;;;;;;;24.19;60.11;99485.88;1614115;89;21041;-70
2021/06/26 01:03:36;;;;;;;10.35;3.75;;;;;;;24.20;59.76;99497.11;1614082;89;21193;-70
2021/06/26 01:06:04;;;;;;;12.53;4.10;;;;;;;24.22;59.73;99502.47;1614032;89;21087;-70
2021/06/26 01:08:31;;;;;;;11.93;4.60;;;;;;;24.21;59.35;99505.02;1614204;89;21018;-71
2021/06/26 01:10:59;;;;;;;4.92;2.67;;;;;;;24.23;59.10;99501.33;1613976;89;21050;-74
2021/06/26 01:13:28;;;;;;;12.18;4.33;;;;;;;24.21;59.34;99507.77;1610342;89;21657;-70
2021/06/26 01:15:55;;;;;;;19.27;5.50;;;;;;;24.17;59.30;99506.83;1613976;89;21121;-70
2021/06/26 01:18:22;;;;;;;12.75;3.20;;;;;;;24.14;59.44;99513.56;1599712;89;21046;-70
2021/06/26 01:20:49;;;;;;;10.43;5.05;;;;;;;24.10;59.60;99519.52;1587513;90;21522;-72
2021/06/26 01:23:15;;;;;;;13.05;3.65;;;;;;;24.09;59.64;99510.47;1612190;89;21026;-71
2021/06/26 01:25:43;;;;;;;10.23;3.27;;;;;;;24.10;59.60;99510.70;1614100;89;21093;-71
2021/06/26 01:28:09;;;;;;;12.55;5.30;;;;;;;24.05;59.83;99509.56;1614114;89;21121;-70
2021/06/26 01:30:36;;;;;;;8.88;4.05;;;;;;;24.03;59.96;99515.19;1614056;89;20974;-70
2021/06/26 01:33:04;;;;;;;4.12;3.50;;;;;;;24.00;60.17;99510.36;1614155;89;21563;-71
2021/06/26 01:35:31;;;;;;;9.83;2.95;;;;;;;23.98;60.39;99514.81;1614186;89;21547;-72
2021/06/26 01:37:59;;;;;;;6.53;3.52;;;;;;;23.93;60.64;99508.20;1614160;89;21031;-69
2021/06/26 01:40:27;;;;;;;8.93;3.67;;;;;;;23.86;61.03;99499.71;1600475;89;21163;-70
2021/06/26 01:42:54;;;;;;;18.27;5.42;;;;;;;23.81;61.23;99502.68;1611402;89;21603;-70
2021/06/26 01:45:22;;;;;;;5.08;3.10;;;;;;;23.73;61.37;99492.61;1614239;89;21542;-71
2021/06/26 01:47:54;;;;;;;14.73;3.52;;;;;;;23.70;61.50;99486.41;1613564;89;21034;-70
2021/06/26 01:50:22;;;;;;;12.68;4.30;;;;;;;23.66;61.80;99495.91;1614247;89;21132;-70
2021/06/26 01:52:49;;;;;;;4.53;3.15;;;;;;;23.59;61.95;99485.27;1613979;89;21174;-69
2021/06/26 01:55:17;;;;;;;5.83;4.10;;;;;;;23.56;62.05;99484.00;1613975;89;21038;-69
2021/06/26 01:57:46;;;;;;;4.85;3.50;;;;;;;23.50;62.19;99485.95;1614083;89;21001;-69
2021/06/26 02:00:15;;;;;;;8.80;3.40;;;;;;;23.42;62.51;99480.73;1614254;89;20947;-71
2021/06/26 02:02:42;;;;;;;21.77;4.65;;;;;;;23.41;62.68;99481.88;1614130;88;21030;-71
2021/06/26 02:05:13;;;;;;;10.58;4.17;;;;;;;23.38;63.12;99487.48;1614375;89;21528;-73
2021/06/26 02:07:40;;;;;;;5.33;3.00;;;;;;;23.36;63.31;99483.45;1614145;89;21035;-71
2021/06/26 02:10:09;;;;;;;13.53;3.83;;;;;;;23.36;63.41;99482.08;1605463;89;21523;-71
2021/06/26 02:12:37;;;;;;;8.20;3.70;;;;;;;23.33;63.42;99474.54;1614186;89;21165;-71
2021/06/26 02:15:06;;;;;;;8.73;4.00;;;;;;;23.30;63.82;99480.16;1614257;89;21538;-70
2021/06/26 02:17:32;;;;;;;10.82;4.40;;;;;;;23.25;64.03;99478.19;1614303;88;21232;-70
2021/06/26 02:20:00;;;;;;;9.65;4.37;;;;;;;23.20;64.37;99478.41;1611116;89;21019;-73
2021/06/26 02:22:27;;;;;;;14.33;4.10;;;;;;;23.17;64.55;99473.00;1614387;89;21022;-71
2021/06/26 02:24:54;;;;;;;6.25;3.83;;;;;;;23.14;64.73;99470.14;1614463;89;21551;-70
2021/06/26 02:27:20;;;;;;;11.15;4.45;;;;;;;23.12;65.10;99478.70;1613861;88;21085;-70
2021/06/26 02:29:47;;;;;;;9.75;4.00;;;;;;;23.09;65.18;99475.27;1614305;89;21570;-70
2021/06/26 02:32:14;;;;;;;12.93;4.37;;;;;;;23.09;65.34;99472.53;1613970;89;21046;-70
2021/06/26 02:34:41;;;;;;;13.68;4.85;;;;;;;23.07;65.61;99471.28;1614331;89;21509;-70
2021/06/26 02:37:09;;;;;;;11.60;5.92;;;;;;;23.03;65.80;99466.45;1614372;88;21518;-71
2021/06/26 02:39:36;;;;;;;10.72;5.00;;;;;;;23.01;65.95;99474.80;1614241;89;21030;-71
2021/06/26 02:42:03;;;;;;;10.93;4.62;;;;;;;23.00;66.27;99481.42;1609883;88;21167;-73
2021/06/26 02:44:31;;;;;;;9.65;4.37;;;;;;;23.02;66.12;99476.41;1626316;88;21513;-70
2021/06/26 02:46:59;;;;;;;20.25;5.33;;;;;;;23.01;66.36;99475.60;1626100;87;20996;-70
2021/06/26 02:49:26;;;;;;;12.47;5.28;;;;;;;23.01;66.51;99470.69;1620577;88;21129;-71
2021/06/26 02:51:53;;;;;;;10.38;4.53;;;;;;;22.99;66.58;99464.16;1608309;89;21080;-70
2021/06/26 02:54:19;;;;;;;9.98;4.42;;;;;;;23.00;66.66;99460.84;1608443;89;21172;-69
2021/06/26 02:56:47;;;;;;;9.93;5.33;;;;;;;23.00;66.73;99460.28;1608226;89;21013;-68
2021/06/26 02:59:13;;;;;;;10.93;5.03;;;;;;;22.97;67.03;99449.96;1608502;89;21116;-69
2021/06/26 03:01:40;;;;;;;12.98;5.05;;;;;;;22.98;67.13;99454.88;1610810;88;21018;-69
2021/06/26 03:04:07;;;;;;;9.70;5.10;;;;;;;22.97;67.26;99455.45;1626478;88;21025;-69
2021/06/26 03:06:34;;;;;;;12.18;5.95;;;;;;;22.96;67.38;99442.89;1626484;88;21106;-68
2021/06/26 03:09:00;;;;;;;12.43;5.33;;;;;;;22.95;67.52;99437.73;1619273;88;20936;-69
2021/06/26 03:11:27;;;;;;;18.73;5.20;;;;;;;22.98;67.50;99441.97;1609549;88;21110;-69
2021/06/26 03:13:54;;;;;;;14.87;5.47;;;;;;;22.95;67.69;99434.99;1608543;89;21524;-69
2021/06/26 03:16:22;;;;;;;7.45;4.70;;;;;;;22.93;67.89;99448.23;1608523;89;21022;-70
2021/06/26 03:18:51;;;;;;;9.70;5.42;;;;;;;22.93;67.98;99440.80;1608419;88;21006;-71
2021/06/26 03:21:18;;;;;;;14.75;5.50;;;;;;;22.95;67.87;99443.22;1611888;88;21012;-71
2021/06/26 03:23:44;;;;;;;8.93;4.90;;;;;;;22.97;68.07;99438.98;1608320;89;21085;-69
2021/06/26 03:26:12;;;;;;;10.98;6.42;;;;;;;22.97;68.07;99440.95;1608289;89;21095;-70
2021/06/26 03:28:39;;;;;;;9.43;5.00;;;;;;;22.98;68.16;99437.86;1608431;89;21095;-70
2021/06/26 03:31:06;;;;;;;10.93;5.37;;;;;;;23.02;68.21;99435.26;1608209;89;21168;-70
2021/06/26 03:33:33;;;;;;;12.75;4.50;;;;;;;23.05;68.21;99442.80;1608402;89;20989;-70
2021/06/26 03:36:00;;;;;;;13.25;5.28;;;;;;;23.08;68.21;99448.17;1608220;89;21082;-71
2021/06/26 03:38:27;;;;;;;17.37;5.40;;;;;;;23.11;68.26;99447.51;1608226;89;21098;-70
2021/06/26 03:40:54;;;;;;;15.90;5.47;;;;;;;23.14;67.97;99440.77;1614230;88;21072;-69
2021/06/26 03:43:21;;;;;;;12.93;5.83;;;;;;;23.16;68.14;99426.72;1608550;88;21519;-69
2021/06/26 03:45:49;;;;;;;18.45;6.00;;;;;;;23.20;68.27;99430.37;1608307;89;20932;-70
2021/06/26 03:48:17;;;;;;;10.70;6.10;;;;;;;23.21;68.17;99428.68;1608334;89;21135;-70
2021/06/26 03:50:44;;;;;;;7.10;5.25;;;;;;;23.26;68.09;99427.06;1608408;89;21118;-72
2021/06/26 03:53:11;;;;;;;14.58;5.25;;;;;;;23.31;67.94;99429.59;1608136;89;21063;-68
2021/06/26 03:55:39;;;;;;;7.92;4.92;;;;;;;23.36;67.68;99425.81;1608369;89;20979;-70
2021/06/26 03:58:07;;;;;;;13.20;5.67;;;;;;;23.37;68.12;99426.05;1608216;89;21031;-69
2021/06/26 04:00:34;;;;;;;9.65;5.17;;;;;;;23.40;67.93;99424.02;1608615;88;20967;-69
2021/06/26 04:03:01;;;;;;;10.40;5.30;;;;;;;23.46;67.83;99429.52;1608220;89;21019;-69
2021/06/26 04:05:29;;;;;;;8.95;5.03;;;;;;;23.54;67.65;99432.76;1608332;89;21057;-70
2021/06/26 04:07:56;;;;;;;11.50;5.42;;;;;;;23.64;67.34;99430.13;1608308;89;21162;-71
2021/06/26 04:10:24;;;;;;;12.98;5.75;;;;;;;23.70;67.20;99421.87;1608123;89;21051;-73
2021/06/26 04:12:50;;;;;;;15.25;6.03;;;;;;;23.81;67.01;99422.45;1608276;89;21065;-70
2021/06/26 04:15:20;;;;;;;8.30;5.53;;;;;;;23.93;66.73;99418.11;1608172;89;20972;-70
2021/06/26 04:17:47;;;;;;;7.35;5.00;;;;;;;24.03;66.43;99413.52;1608370;89;21021;-69
2021/06/26 04:20:14;;;;;;;9.70;5.10;;;;;;;24.10;66.01;99410.41;1622489;88;22350;-69
2021/06/26 04:22:44;;;;;;;17.00;5.35;;;;;;;24.15;65.81;99418.41;1612198;88;21049;-69
2021/06/26 04:25:12;;;;;;;18.73;6.17;;;;;;;24.21;65.68;99412.94;1607998;89;21041;-71
2021/06/26 04:27:39;;;;;;;8.95;5.65;;;;;;;24.27;65.51;99410.16;1608299;89;21073;-74
2021/06/26 04:30:07;;;;;;;12.23;6.15;;;;;;;24.32;65.43;99407.73;1608333;89;21081;-71
2021/06/26 04:32:36;;;;;;;14.10;5.40;;;;;;;24.36;65.28;99400.99;1608559;89;21154;-70
2021/06/26 04:35:10;;;;;;;16.27;5.92;;;;;;;24.41;65.34;99399.37;1608319;89;21087;-69
2021/06/26 04:37:37;;;;;;;12.03;5.90;;;;;;;24.42;65.28;99400.38;1608824;88;20981;-72
2021/06/26 04:40:07;;;;;;;9.18;5.22;;;;;;;24.46;65.37;99388.13;1608448;89;21010;-70
2021/06/26 04:42:34;;;;;;;13.45;6.08;;;;;;;24.51;65.34;99398.28;1608522;89;21555;-69
2021/06/26 04:45:01;;;;;;;17.90;5.45;;;;;;;24.57;65.02;99398.84;1608322;88;21234;-71
2021/06/26 04:47:28;;;;;;;20.20;6.62;;;;;;;24.62;65.18;99401.34;1610087;88;21040;-69
2021/06/26 04:49:54;;;;;;;9.00;5.65;;;;;;;24.68;65.05;99395.82;1608587;89;21009;-69
2021/06/26 04:52:21;;;;;;;8.93;6.12;;;;;;;24.73;64.87;99399.13;1608309;89;21053;-71
2021/06/26 04:54:48;;;;;;;10.88;5.45;;;;;;;24.78;64.66;99394.52;1608348;89;21049;-69
2021/06/26 04:57:15;;;;;;;9.88;7.20;;;;;;;24.81;64.78;99390.48;1612033;88;22662;-73
2021/06/26 04:59:43;;;;;;;11.03;5.65;;;;;;;24.85;64.80;99398.25;1610885;88;21533;-73
2021/06/26 05:02:10;;;;;;;10.63;6.70;;;;;;;24.90;64.84;99394.48;1608336;89;21017;-70
2021/06/26 05:04:36;;;;;;;20.55;7.40;;;;;;;24.96;64.77;99398.00;1608304;89;21100;-71
2021/06/26 05:07:04;;;;;;;7.42;6.08;;;;;;;25.03;64.74;99381.70;1608558;88;21546;-71
2021/06/26 05:09:33;;;;;;;10.05;6.08;;;;;;;25.09;64.50;99381.64;1608466;89;23369;-71
2021/06/26 05:12:00;;;;;;;12.18;7.08;;;;;;;25.15;64.39;99387.11;1608339;89;21602;-72
2021/06/26 05:14:27;;;;;;;11.22;6.33;;;;;;;25.22;64.32;99391.20;1608131;89;21027;-72
2021/06/26 05:16:54;;;;;;;8.65;6.80;;;;;;;25.29;64.40;99387.24;1608447;89;21018;-73
2021/06/26 05:19:23;;;;;;;20.02;6.53;;;;;;;25.34;63.99;99383.66;1608549;89;21042;-70
2021/06/26 05:21:49;;;;;;;12.68;5.90;;;;;;;25.40;63.81;99384.19;1608306;89;22220;-68
2021/06/26 05:24:17;;;;;;;14.25;6.50;;;;;;;25.46;63.49;99391.03;1608133;89;21030;-72
2021/06/26 05:26:44;;;;;;;9.05;7.10;;;;;;;25.49;63.47;99387.56;1612683;88;21050;-70
2021/06/26 05:29:11;;;;;;;19.25;7.12;;;;;;;25.54;63.28;99386.74;1608235;89;21062;-70
2021/06/26 05:31:38;;;;;;;8.30;6.25;;;;;;;25.58;63.38;99377.98;1608205;89;21190;-70
2021/06/26 05:34:04;;;;;;;12.05;6.80;;;;;;;25.64;63.29;99374.38;1608281;89;21867;-71
2021/06/26 05:36:33;;;;;;;13.32;7.45;;;;;;;25.71;63.12;99382.03;1608277;89;21002;-73
2021/06/26 05:39:01;;;;;;;15.05;9.28;;;;;;;25.79;62.55;99371.38;1608207;89;20914;-73
2021/06/26 05:41:28;;;;;;;21.82;7.17;;;;;;;25.85;62.52;99375.47;1607469;89;21509;-72
2021/06/26 05:43:55;;;;;;;17.10;6.72;;;;;;;25.90;62.62;99370.45;1594079;89;21169;-71
2021/06/26 05:46:22;;;;;;;7.30;6.10;;;;;;;25.96;61.89;99375.91;1585311;90;21154;-71
2021/06/26 05:48:50;;;;;;;15.15;6.20;;;;;;;26.02;61.78;99381.95;1585224;90;21024;-69
2021/06/26 05:51:18;;;;;;;15.00;6.72;;;;;;;26.09;61.83;99382.09;1585495;90;21004;-71
2021/06/26 05:53:45;;;;;;;10.58;6.80;;;;;;;26.17;61.86;99382.48;1585384;90;21056;-71
2021/06/26 05:56:12;;;;;;;8.38;6.37;;;;;;;26.26;61.68;99383.67;1585426;90;21126;-72
2021/06/26 05:58:39;;;;;;;10.48;6.83;;;;;;;26.36;61.90;99379.77;1587981;89;21923;-74
2021/06/26 06:01:07;;;;;;;9.20;7.25;;;;;;;26.49;61.24;99385.93;1601423;89;20994;-73
2021/06/26 06:03:34;;;;;;;13.68;6.75;;;;;;;26.61;60.76;99378.91;1596523;89;21537;-71
2021/06/26 06:06:00;;;;;;;7.95;6.25;;;;;;;26.68;60.21;99387.30;1594665;89;21096;-70
2021/06/26 06:08:28;;;;;;;11.10;6.87;;;;;;;26.76;59.91;99387.64;1586741;90;21063;-71
2021/06/26 06:10:54;;;;;;;10.15;6.67;;;;;;;26.82;59.80;99397.81;1586721;90;21176;-69
2021/06/26 06:13:22;;;;;;;11.48;6.40;;;;;;;26.87;59.92;99392.83;1591802;89;20983;-73
2021/06/26 06:15:50;;;;;;;11.22;7.65;;;;;;;26.93;59.64;99396.67;1601835;89;21054;-70
2021/06/26 06:18:19;;;;;;;12.80;7.58;;;;;;;26.96;59.69;99395.35;1601773;89;21097;-71
2021/06/26 06:20:46;;;;;;;9.00;6.00;;;;;;;27.01;59.90;99394.25;1597515;89;21581;-71
2021/06/26 06:23:14;;;;;;;7.25;6.25;;;;;;;27.04;59.94;99381.91;1591126;89;21189;-68
2021/06/26 06:25:41;;;;;;;11.12;6.55;;;;;;;27.11;59.89;99382.60;1599824;89;21089;-70
2021/06/26 06:28:07;;;;;;;10.82;7.03;;;;;;;27.15;59.88;99386.22;1599917;89;21157;-71
2021/06/26 06:30:35;;;;;;;10.23;7.85;;;;;;;27.17;59.97;99386.09;1599928;89;21100;-69
2021/06/26 06:33:04;;;;;;;15.83;8.58;;;;;;;27.22;60.13;99387.16;1599928;89;21089;-71
2021/06/26 06:35:31;;;;;;;17.50;10.95;;;;;;;27.23;60.15;99381.06;1587864;89;21822;-71
2021/06/26 06:37:58;;;;;;;15.55;8.53;;;;;;;27.28;60.20;99384.90;1588073;90;21019;-71
2021/06/26 06:40:26;;;;;;;15.13;7.12;;;;;;;27.33;60.32;99382.63;1587967;90;20982;-71
2021/06/26 06:42:52;;;;;;;15.93;7.87;;;;;;;27.41;60.41;99384.11;1604187;88;21024;-70
2021/06/26 06:45:20;;;;;;;12.40;6.25;;;;;;;27.44;60.37;99381.41;1617229;88;21063;-68
2021/06/26 06:47:47;;;;;;;16.97;7.50;;;;;;;27.48;60.46;99379.49;1617476;88;21940;-71
2021/06/26 06:50:13;;;;;;;10.82;7.22;;;;;;;27.50;60.30;99369.48;1616471;88;21059;-70
2021/06/26 06:52:40;;;;;;;9.28;7.12;;;;;;;27.54;60.17;99373.91;1616879;88;21019;-71
2021/06/26 06:55:08;;;;;;;8.65;7.65;;;;;;;27.58;59.72;99372.57;1616397;88;21030;-70
2021/06/26 06:57:35;;;;;;;14.58;7.53;;;;;;;27.58;59.56;99373.38;1616695;88;21595;-70
2021/06/26 07:00:02;;;;;;;10.18;7.55;;;;;;;27.61;59.67;99377.38;1618282;88;21176;-70
2021/06/26 07:02:29;;;;;;;10.65;7.65;;;;;;;27.64;59.79;99384.91;1620987;87;21110;-70
2021/06/26 07:04:56;;;;;;;10.95;7.55;;;;;;;27.61;59.85;99381.52;1616263;88;21062;-70
2021/06/26 07:07:23;;;;;;;13.83;7.65;;;;;;;27.58;60.13;99385.80;1616775;88;21818;-75
2021/06/26 07:09:49;;;;;;;19.27;13.25;;;;;;;27.59;60.10;99389.37;1616363;88;21035;-72
2021/06/26 07:12:16;;;;;;;10.55;9.05;;;;;;;27.62;60.29;99391.41;1616524;88;21062;-73
2021/06/26 07:14:44;;;;;;;13.58;8.18;;;;;;;27.62;60.52;99389.45;1616335;88;21575;-71
2021/06/26 07:17:12;;;;;;;13.93;7.80;;;;;;;27.60;60.69;99386.83;1616305;88;21003;-72
2021/06/26 07:19:39;;;;;;;10.15;5.75;;;;;;;27.62;60.72;99381.73;1616530;88;21115;-74
2021/06/26 07:22:06;;;;;;;12.18;7.37;;;;;;;27.65;60.71;99379.60;1617667;88;21050;-74
2021/06/26 07:24:33;;;;;;;19.80;8.75;;;;;;;27.68;60.68;99381.03;1616440;88;21220;-73
2021/06/26 07:27:00;;;;;;;9.93;8.63;;;;;;;27.74;60.98;99379.55;1616920;88;20983;-71
2021/06/26 07:29:27;;;;;;;12.95;8.40;;;;;;;27.80;60.68;99370.95;1617126;88;21039;-73
2021/06/26 07:31:54;;;;;;;10.38;8.00;;;;;;;27.85;60.51;99367.86;1616606;88;20923;-72
2021/06/26 07:34:21;;;;;;;21.50;8.58;;;;;;;27.91;60.36;99358.89;1616719;88;21046;-72
2021/06/26 07:36:48;;;;;;;12.50;6.78;;;;;;;27.95;60.21;99366.64;1616511;88;21900;-72
2021/06/26 07:39:15;;;;;;;14.95;8.05;;;;;;;28.01;60.02;99358.82;1616249;88;21040;-73
2021/06/26 07:41:43;;;;;;;11.93;9.20;;;;;;;28.08;59.49;99361.67;1616731;88;21029;-72
2021/06/26 07:44:10;;;;;;;9.80;8.80;;;;;;;28.13;58.99;99362.76;1611093;88;21083;-71
2021/06/26 07:46:38;;;;;;;11.83;7.70;;;;;;;28.22;58.99;99363.27;1610954;89;21543;-71
2021/06/26 07:49:06;;;;;;;9.63;8.15;;;;;;;28.29;58.76;99366.72;1614829;88;22004;-73
2021/06/26 07:51:32;;;;;;;11.55;7.58;;;;;;;28.37;58.73;99364.25;1611113;89;20967;-72
2021/06/26 07:53:59;;;;;;;11.97;7.92;;;;;;;28.46;58.94;99374.44;1611017;89;21603;-71
2021/06/26 07:56:26;;;;;;;13.05;7.65;;;;;;;28.60;58.03;99367.69;1610998;89;21140;-72
2021/06/26 07:58:53;;;;;;;18.15;9.23;;;;;;;28.72;57.27;99376.36;1610893;89;21019;-71
2021/06/26 08:01:21;;;;;;;15.28;7.83;;;;;;;28.81;56.86;99376.85;1611013;89;21564;-73
2021/06/26 08:03:48;;;;;;;16.55;8.78;;;;;;;28.89;56.67;99377.92;1627702;88;21053;-72
2021/06/26 08:06:15;;;;;;;7.58;6.65;;;;;;;28.98;56.47;99375.64;1629644;88;20984;-72
2021/06/26 08:08:42;;;;;;;10.28;7.87;;;;;;;29.06;56.33;99373.76;1611267;88;21106;-75
2021/06/26 08:11:09;;;;;;;11.65;7.12;;;;;;;29.17;55.74;99371.06;1609874;89;21064;-72
2021/06/26 08:13:36;;;;;;;12.07;8.63;;;;;;;29.27;55.23;99375.91;1610395;89;21121;-72
2021/06/26 08:16:05;;;;;;;8.33;6.80;;;;;;;29.35;55.48;99374.84;1610895;89;21544;-72
2021/06/26 08:18:32;;;;;;;10.70;5.92;;;;;;;29.42;55.39;99378.45;1611095;89;21059;-72
2021/06/26 08:20:59;;;;;;;12.80;8.43;;;;;;;29.49;54.94;99383.27;1610922;89;21036;-72
2021/06/26 08:23:25;;;;;;;11.53;6.67;;;;;;;29.52;55.06;99375.56;1611332;88;21123;-72
2021/06/26 08:25:52;;;;;;;18.85;6.87;;;;;;;29.62;54.80;99374.05;1604951;88;21849;-71
2021/06/26 08:28:19;;;;;;;8.13;7.35;;;;;;;29.72;54.74;99374.14;1630980;88;21033;-73
2021/06/26 08:30:46;;;;;;;17.92;8.50;;;;;;;29.81;54.61;99367.66;1618170;88;21075;-72
2021/06/26 08:33:13;;;;;;;21.15;7.35;;;;;;;29.92;54.39;99361.42;1610950;89;21092;-70
2021/06/26 08:35:39;;;;;;;15.93;8.83;;;;;;;30.03;53.78;99365.83;1611145;89;21130;-72
2021/06/26 08:38:06;;;;;;;12.47;7.20;;;;;;;30.12;53.43;99371.05;1610885;89;21160;-72
2021/06/26 08:40:34;;;;;;;19.92;7.05;;;;;;;30.21;52.95;99362.58;1610862;89;20976;-71
2021/06/26 08:43:01;;;;;;;11.05;10.05;;;;;;;30.31;52.94;99369.36;1611252;88;20983;-71
2021/06/26 08:45:29;;;;;;;12.68;7.45;;;;;;;30.39;52.85;99359.87;1610527;89;21034;-72
2021/06/26 08:47:56;;;;;;;19.98;8.38;;;;;;;30.47;52.94;99355.95;1610325;88;21614;-73
2021/06/26 08:50:25;;;;;;;15.60;6.85;;;;;;;30.58;53.07;99350.45;1612178;88;22016;-71
2021/06/26 08:52:52;;;;;;;19.37;7.17;;;;;;;30.69;52.47;99354.05;1610795;89;21049;-72
2021/06/26 08:55:19;;;;;;;18.52;7.67;;;;;;;30.77;52.45;99351.48;1610887;89;21051;-72
2021/06/26 08:57:46;;;;;;;18.95;8.38;;;;;;;30.85;52.39;99350.89;1611349;88;21095;-71
2021/06/26 09:00:25;;;;;;;8.40;6.62;;;;;;;30.91;52.43;99345.16;1611112;88;21120;-73
2021/06/26 09:03:04;;;;;;;19.67;8.80;;;;;;;30.97;52.25;99352.72;1611126;89;21165;-73
2021/06/26 09:05:31;;;;;;;8.78;7.00;;;;;;;30.97;51.86;99350.53;1611214;89;21083;-73
2021/06/26 09:08:20;;;;;;;11.60;7.87;;;;;;;30.98;51.43;99345.19;1611112;89;21018;-72
2021/06/26 09:10:50;;;;;;;18.05;9.73;;;;;;;30.97;51.56;99344.39;1610820;89;21078;-71
2021/06/26 09:13:25;;;;;;;12.85;7.75;;;;;;;30.97;51.45;99336.64;1629154;88;21121;-72
2021/06/26 09:16:12;;;;;;;27.30;9.60;;;;;;;30.96;51.20;99333.66;1631246;88;21095;-72
2021/06/26 09:18:48;;;;;;;12.70;10.23;;;;;;;31.00;51.60;99339.42;1630990;87;20950;-70
2021/06/26 09:21:36;;;;;;;10.45;7.37;;;;;;;31.13;51.01;99337.06;1631291;88;21578;-73
2021/06/26 09:24:09;;;;;;;16.45;7.85;;;;;;;31.22;50.57;99337.50;1626069;87;20996;-72
2021/06/26 09:26:56;;;;;;;12.23;7.28;;;;;;;31.28;50.19;99335.89;1611214;89;21011;-72
2021/06/26 09:29:24;;;;;;;17.60;8.48;;;;;;;31.28;50.08;99328.14;1608868;89;21169;-72
2021/06/26 09:32:00;;;;;;;17.85;10.85;;;;;;;31.19;50.30;99334.10;1623469;88;20974;-73
2021/06/26 09:34:42;;;;;;;25.55;10.15;;;;;;;31.16;50.16;99331.53;1612628;88;32480;-73
2021/06/26 09:37:18;;;;;;;22.22;9.13;;;;;;;31.14;50.17;99321.99;1610956;89;21076;-72
2021/06/26 09:39:45;;;;;;;18.30;7.30;;;;;;;31.18;49.22;99317.22;1610985;89;21528;-73
2021/06/26 09:42:31;;;;;;;10.35;7.58;;;;;;;31.26;49.33;99324.98;1610933;89;21161;-72
2021/06/26 09:45:12;;;;;;;25.08;10.48;;;;;;;31.35;48.12;99308.70;1609266;89;20999;-72
2021/06/26 09:47:44;;;;;;;23.22;10.13;;;;;;;31.38;48.65;99317.02;1611097;89;21057;-73
2021/06/26 09:50:23;;;;;;;14.63;7.85;;;;;;;31.41;48.91;99307.91;1608426;88;21118;-74
2021/06/26 09:53:05;;;;;;;13.50;7.12;;;;;;;31.46;48.19;99304.70;1608473;89;21042;-73
2021/06/26 09:55:38;;;;;;;10.68;5.75;;;;;;;31.58;47.22;99297.97;1616804;88;21658;-72
2021/06/26 09:58:10;;;;;;;14.98;7.17;;;;;;;31.68;46.66;99306.89;1618597;88;21022;-71
2021/06/26 10:00:40;;;;;;;14.47;8.28;;;;;;;31.70;46.41;99300.34;1608400;89;21091;-74
2021/06/26 10:03:08;;;;;;;11.55;6.50;;;;;;;31.70;46.49;99300.34;1608234;89;20965;-72
2021/06/26 10:05:35;;;;;;;14.00;7.05;;;;;;;31.75;46.98;99310.27;1614441;88;21069;-75
2021/06/26 10:08:05;;;;;;;18.40;10.55;;;;;;;31.88;46.06;99303.06;1602140;89;20932;-72
2021/06/26 10:10:34;;;;;;;14.95;8.33;;;;;;;31.99;45.47;99304.59;1607563;89;20995;-78
2021/06/26 10:13:01;;;;;;;17.52;7.47;;;;;;;32.04;45.28;99304.19;1608532;89;21501;-73
2021/06/26 10:15:32;;;;;;;14.65;6.10;;;;;;;32.12;45.48;99297.25;1608355;89;20981;-72
2021/06/26 10:17:59;;;;;;;8.73;6.55;;;;;;;32.18;45.39;99292.86;1608574;89;21093;-72
2021/06/26 10:20:27;;;;;;;8.13;7.22;;;;;;;32.17;45.35;99310.15;1608106;89;21459;-72
2021/06/26 10:23:00;;;;;;;9.70;6.65;;;;;;;32.16;44.89;99299.41;1610437;88;21061;-75
2021/06/26 10:25:39;;;;;;;11.68;7.47;;;;;;;32.15;45.53;99301.99;1608172;89;21594;-72
2021/06/26 10:28:20;;;;;;;9.98;6.62;;;;;;;32.14;45.58;99291.45;1608376;89;21035;-72
2021/06/26 10:30:59;;;;;;;10.98;6.67;;;;;;;32.11;45.90;99294.27;1608284;88;21279;-74
2021/06/26 10:33:28;;;;;;;8.93;6.13;;;;;;;32.05;46.16;99300.81;1613108;88;21158;-71
2021/06/26 10:36:00;;;;;;;8.73;7.10;;;;;;;32.14;45.43;99293.44;1608617;89;21005;-73
2021/06/26 10:38:29;;;;;;;9.93;6.20;;;;;;;32.14;45.39;99288.67;1624448;88;21029;-70
2021/06/26 10:40:56;;;;;;;7.42;6.40;;;;;;;32.17;44.89;99292.06;1617492;87;21658;-72
2021/06/26 10:43:29;;;;;;;8.53;6.03;;;;;;;32.29;44.66;99283.83;1615738;86;21071;-71
2021/06/26 10:46:11;;;;;;;5.85;4.47;;;;;;;32.41;41.95;99277.22;1614014;87;21209;-71
2021/06/26 10:48:42;;;;;;;10.63;6.20;;;;;;;32.50;41.92;99277.36;1633517;87;21074;-68
2021/06/26 10:51:10;;;;;;;7.00;6.33;;;;;;;32.52;42.15;99286.12;1607322;87;21083;-71
2021/06/26 10:53:41;;;;;;;10.53;4.22;;;;;;;32.56;39.92;99273.75;1613765;87;21591;-71
2021/06/26 10:56:14;;;;;;;14.53;4.25;;;;;;;32.64;38.74;99278.09;1616168;87;21082;-72
2021/06/26 10:58:44;;;;;;;10.50;4.33;;;;;;;32.78;38.74;99277.20;1610059;87;21156;-71
2021/06/26 11:01:22;;;;;;;9.23;3.80;;;;;;;32.95;36.92;99275.50;1607953;87;21126;-69
2021/06/26 11:03:52;;;;;;;10.32;3.62;;;;;;;33.03;36.32;99271.44;1630988;87;20997;-70
2021/06/26 11:06:26;;;;;;;9.95;3.60;;;;;;;33.07;35.55;99266.03;1626282;87;21023;-72
2021/06/26 11:09:03;;;;;;;4.28;3.67;;;;;;;33.13;35.37;99260.21;1617839;87;21048;-74
2021/06/26 11:11:45;;;;;;;7.58;3.50;;;;;;;33.26;35.07;99275.25;1621541;87;21152;-71
2021/06/26 11:14:19;;;;;;;6.25;3.33;;;;;;;33.34;34.78;99269.59;1607506;87;21050;-71
2021/06/26 11:16:54;;;;;;;5.05;3.67;;;;;;;33.40;34.78;99271.52;1608332;89;21642;-71
2021/06/26 11:19:25;;;;;;;11.20;5.95;;;;;;;33.47;34.94;99272.06;1604844;89;21073;-72
2021/06/26 11:21:53;;;;;;;6.37;3.75;;;;;;;33.60;34.83;99274.52;1610739;87;21672;-71
2021/06/26 11:24:45;;;;;;;6.00;3.30;;;;;;;33.72;34.22;99276.19;1613760;87;22013;-71
2021/06/26 11:27:18;;;;;;;7.55;4.83;;;;;;;33.82;33.90;99272.30;1639874;87;21520;-71
2021/06/26 11:29:48;;;;;;;8.60;5.28;;;;;;;33.78;34.37;99261.78;1634020;87;20968;-74
2021/06/26 11:32:23;;;;;;;9.03;3.05;;;;;;;33.84;34.17;99267.10;1592179;87;22805;-76
2021/06/26 11:35:11;;;;;;;13.78;4.20;;;;;;;33.75;33.84;99263.42;1606172;87;21067;-82